sensor_id;sensor_type;location;lat;lon;timestamp;P1;durP1;ratioP1;P2;durP2;ratioP2
79348;SDS011;68817;48.110;11.660;2023-06-22T00:00:56;5.45;;;3.45;;
79348;SDS011;68817;48.110;11.660;2023-06-22T00:03:23;7.20;;;3.20;;
79348;SDS011;68817;48.110;11.660;2023-06-22T00:05:49;5.95;;;3.45;;
79348;SDS011;68817;48.110;11.660;2023-06-22T00:08:15;8.50;;;3.28;;
79348;SDS011;68817;48.110;11.660;2023-06-22T00:10:42;9.68;;;3.67;;
79348;SDS011;68817;48.110;11.660;2023-06-22T00:13:08;6.70;;;3.20;;
79348;SDS011;68817;48.110;11.660;2023-06-22T00:15:34;5.22;;;3.10;;
79348;SDS011;68817;48.110;11.660;2023-06-22T00:17:59;7.93;;;3.03;;
79348;SDS011;68817;48.110;11.660;2023-06-22T00:20:25;6.78;;;3.35;;
79348;SDS011;68817;48.110;11.660;2023-06-22T00:22:55;8.00;;;3.60;;
79348;SDS011;68817;48.110;11.660;2023-06-22T00:25:22;5.00;;;3.17;;
79348;SDS011;68817;48.110;11.660;2023-06-22T00:27:48;6.88;;;2.75;;
79348;SDS011;68817;48.110;11.660;2023-06-22T00:30:13;6.63;;;3.45;;
79348;SDS011;68817;48.110;11.660;2023-06-22T00:32:40;8.90;;;3.67;;
79348;SDS011;68817;48.110;11.660;2023-06-22T00:35:06;6.70;;;3.20;;
79348;SDS011;68817;48.110;11.660;2023-06-22T00:37:32;6.93;;;3.70;;
79348;SDS011;68817;48.110;11.660;2023-06-22T00:39:58;6.90;;;3.53;;
79348;SDS011;68817;48.110;11.660;2023-06-22T00:42:24;6.38;;;3.50;;
79348;SDS011;68817;48.110;11.660;2023-06-22T00:44:49;5.65;;;3.45;;
79348;SDS011;68817;48.110;11.660;2023-06-22T00:47:16;7.28;;;3.53;;
79348;SDS011;68817;48.110;11.660;2023-06-22T00:49:43;7.18;;;3.90;;
79348;SDS011;68817;48.110;11.660;2023-06-22T00:52:08;7.50;;;3.53;;
79348;SDS011;68817;48.110;11.660;2023-06-22T00:54:42;5.80;;;3.67;;
79348;SDS011;68817;48.110;11.660;2023-06-22T00:57:13;8.23;;;3.95;;
79348;SDS011;68817;48.110;11.660;2023-06-22T00:59:42;6.65;;;3.72;;
79348;SDS011;68817;48.110;11.660;2023-06-22T01:02:08;8.93;;;3.50;;
79348;SDS011;68817;48.110;11.660;2023-06-22T01:04:35;6.30;;;3.25;;
79348;SDS011;68817;48.110;11.660;2023-06-22T01:07:08;8.35;;;3.63;;
79348;SDS011;68817;48.110;11.660;2023-06-22T01:09:41;8.45;;;3.42;;
79348;SDS011;68817;48.110;11.660;2023-06-22T01:12:30;6.35;;;3.55;;
79348;SDS011;68817;48.110;11.660;2023-06-22T01:15:04;5.25;;;3.10;;
79348;SDS011;68817;48.110;11.660;2023-06-22T01:17:34;8.35;;;3.70;;
79348;SDS011;68817;48.110;11.660;2023-06-22T01:20:00;9.50;;;3.63;;
79348;SDS011;68817;48.110;11.660;2023-06-22T01:22:30;5.95;;;2.90;;
79348;SDS011;68817;48.110;11.660;2023-06-22T01:25:07;6.72;;;3.10;;
79348;SDS011;68817;48.110;11.660;2023-06-22T01:30:43;9.40;;;3.80;;
79348;SDS011;68817;48.110;11.660;2023-06-22T01:33:11;6.80;;;3.70;;
79348;SDS011;68817;48.110;11.660;2023-06-22T01:35:37;5.88;;;3.05;;
79348;SDS011;68817;48.110;11.660;2023-06-22T01:38:04;6.97;;;3.38;;
79348;SDS011;68817;48.110;11.660;2023-06-22T01:40:29;6.90;;;3.47;;
79348;SDS011;68817;48.110;11.660;2023-06-22T01:42:55;7.53;;;3.75;;
79348;SDS011;68817;48.110;11.660;2023-06-22T01:45:20;4.60;;;3.00;;
79348;SDS011;68817;48.110;11.660;2023-06-22T01:47:47;5.47;;;3.65;;
79348;SDS011;68817;48.110;11.660;2023-06-22T01:50:12;6.63;;;3.10;;
79348;SDS011;68817;48.110;11.660;2023-06-22T01:52:38;6.85;;;3.47;;
79348;SDS011;68817;48.110;11.660;2023-06-22T01:55:03;7.88;;;3.45;;
79348;SDS011;68817;48.110;11.660;2023-06-22T01:57:31;8.65;;;3.10;;
79348;SDS011;68817;48.110;11.660;2023-06-22T02:00:00;6.10;;;3.38;;
79348;SDS011;68817;48.110;11.660;2023-06-22T02:02:44;8.45;;;4.10;;
79348;SDS011;68817;48.110;11.660;2023-06-22T02:05:19;10.68;;;5.18;;
79348;SDS011;68817;48.110;11.660;2023-06-22T02:07:52;8.88;;;4.57;;
79348;SDS011;68817;48.110;11.660;2023-06-22T02:10:23;7.40;;;3.78;;
79348;SDS011;68817;48.110;11.660;2023-06-22T02:12:49;7.18;;;3.88;;
79348;SDS011;68817;48.110;11.660;2023-06-22T02:15:15;8.40;;;3.90;;
79348;SDS011;68817;48.110;11.660;2023-06-22T02:17:41;9.07;;;3.90;;
79348;SDS011;68817;48.110;11.660;2023-06-22T02:20:13;7.22;;;4.00;;
79348;SDS011;68817;48.110;11.660;2023-06-22T02:22:41;6.38;;;3.80;;
79348;SDS011;68817;48.110;11.660;2023-06-22T02:25:09;9.02;;;4.60;;
79348;SDS011;68817;48.110;11.660;2023-06-22T02:27:35;7.15;;;3.63;;
79348;SDS011;68817;48.110;11.660;2023-06-22T02:30:00;8.60;;;3.92;;
79348;SDS011;68817;48.110;11.660;2023-06-22T02:32:26;5.53;;;3.75;;
79348;SDS011;68817;48.110;11.660;2023-06-22T02:34:52;7.15;;;3.80;;
79348;SDS011;68817;48.110;11.660;2023-06-22T02:37:17;6.03;;;3.35;;
79348;SDS011;68817;48.110;11.660;2023-06-22T02:39:43;8.23;;;4.32;;
79348;SDS011;68817;48.110;11.660;2023-06-22T02:42:08;6.80;;;3.92;;
79348;SDS011;68817;48.110;11.660;2023-06-22T02:44:35;10.00;;;4.20;;
79348;SDS011;68817;48.110;11.660;2023-06-22T02:47:01;10.73;;;4.47;;
79348;SDS011;68817;48.110;11.660;2023-06-22T02:49:27;7.85;;;4.15;;
79348;SDS011;68817;48.110;11.660;2023-06-22T02:51:52;6.28;;;3.85;;
79348;SDS011;68817;48.110;11.660;2023-06-22T02:54:20;8.73;;;3.90;;
79348;SDS011;68817;48.110;11.660;2023-06-22T02:56:47;6.38;;;3.70;;
79348;SDS011;68817;48.110;11.660;2023-06-22T02:59:13;8.68;;;3.85;;
79348;SDS011;68817;48.110;11.660;2023-06-22T03:01:38;8.65;;;4.47;;
79348;SDS011;68817;48.110;11.660;2023-06-22T03:04:18;7.57;;;4.10;;
79348;SDS011;68817;48.110;11.660;2023-06-22T03:06:44;7.53;;;3.60;;
79348;SDS011;68817;48.110;11.660;2023-06-22T03:09:16;7.00;;;3.60;;
79348;SDS011;68817;48.110;11.660;2023-06-22T03:11:42;8.00;;;4.00;;
79348;SDS011;68817;48.110;11.660;2023-06-22T03:14:07;6.75;;;3.90;;
79348;SDS011;68817;48.110;11.660;2023-06-22T03:16:33;8.18;;;3.83;;
79348;SDS011;68817;48.110;11.660;2023-06-22T03:18:59;8.23;;;4.10;;
79348;SDS011;68817;48.110;11.660;2023-06-22T03:21:27;7.32;;;3.80;;
79348;SDS011;68817;48.110;11.660;2023-06-22T03:23:53;8.07;;;3.92;;
79348;SDS011;68817;48.110;11.660;2023-06-22T03:26:18;8.88;;;4.00;;
79348;SDS011;68817;48.110;11.660;2023-06-22T03:28:44;9.70;;;4.75;;
79348;SDS011;68817;48.110;11.660;2023-06-22T03:31:09;8.10;;;4.30;;
79348;SDS011;68817;48.110;11.660;2023-06-22T03:33:37;10.90;;;4.72;;
79348;SDS011;68817;48.110;11.660;2023-06-22T03:36:03;10.50;;;4.97;;
79348;SDS011;68817;48.110;11.660;2023-06-22T03:38:28;11.00;;;4.00;;
79348;SDS011;68817;48.110;11.660;2023-06-22T03:40:56;8.32;;;4.45;;
79348;SDS011;68817;48.110;11.660;2023-06-22T03:43:21;8.50;;;4.40;;
79348;SDS011;68817;48.110;11.660;2023-06-22T03:45:47;8.32;;;4.50;;
79348;SDS011;68817;48.110;11.660;2023-06-22T03:48:13;11.13;;;4.43;;
79348;SDS011;68817;48.110;11.660;2023-06-22T03:50:39;7.30;;;4.55;;
79348;SDS011;68817;48.110;11.660;2023-06-22T03:53:04;13.50;;;5.35;;
79348;SDS011;68817;48.110;11.660;2023-06-22T03:55:30;7.68;;;4.65;;
79348;SDS011;68817;48.110;11.660;2023-06-22T03:57:55;8.98;;;4.70;;
79348;SDS011;68817;48.110;11.660;2023-06-22T04:00:22;8.90;;;5.20;;
79348;SDS011;68817;48.110;11.660;2023-06-22T04:02:48;10.05;;;5.13;;
79348;SDS011;68817;48.110;11.660;2023-06-22T04:05:13;15.07;;;5.55;;
79348;SDS011;68817;48.110;11.660;2023-06-22T04:07:39;9.55;;;5.40;;
79348;SDS011;68817;48.110;11.660;2023-06-22T04:10:04;9.00;;;5.13;;
79348;SDS011;68817;48.110;11.660;2023-06-22T04:12:30;10.75;;;5.43;;
79348;SDS011;68817;48.110;11.660;2023-06-22T04:14:55;10.95;;;5.15;;
79348;SDS011;68817;48.110;11.660;2023-06-22T04:17:21;11.23;;;5.10;;
79348;SDS011;68817;48.110;11.660;2023-06-22T04:19:46;13.73;;;5.82;;
79348;SDS011;68817;48.110;11.660;2023-06-22T04:22:12;9.40;;;5.43;;
79348;SDS011;68817;48.110;11.660;2023-06-22T04:24:37;10.25;;;5.30;;
79348;SDS011;68817;48.110;11.660;2023-06-22T04:27:03;11.68;;;6.30;;
79348;SDS011;68817;48.110;11.660;2023-06-22T04:29:29;11.68;;;5.95;;
79348;SDS011;68817;48.110;11.660;2023-06-22T04:31:58;10.77;;;6.13;;
79348;SDS011;68817;48.110;11.660;2023-06-22T04:34:28;8.80;;;5.78;;
79348;SDS011;68817;48.110;11.660;2023-06-22T04:36:54;10.27;;;6.43;;
79348;SDS011;68817;48.110;11.660;2023-06-22T04:39:19;9.60;;;5.55;;
79348;SDS011;68817;48.110;11.660;2023-06-22T04:41:45;10.70;;;6.07;;
79348;SDS011;68817;48.110;11.660;2023-06-22T04:46:36;8.93;;;6.05;;
79348;SDS011;68817;48.110;11.660;2023-06-22T04:49:06;11.45;;;6.22;;
79348;SDS011;68817;48.110;11.660;2023-06-22T04:51:41;9.15;;;5.75;;
79348;SDS011;68817;48.110;11.660;2023-06-22T04:54:07;9.15;;;6.20;;
79348;SDS011;68817;48.110;11.660;2023-06-22T04:56:33;8.27;;;5.28;;
79348;SDS011;68817;48.110;11.660;2023-06-22T04:58:59;9.85;;;5.85;;
79348;SDS011;68817;48.110;11.660;2023-06-22T05:01:25;9.40;;;5.93;;
79348;SDS011;68817;48.110;11.660;2023-06-22T05:03:50;11.43;;;5.93;;
79348;SDS011;68817;48.110;11.660;2023-06-22T05:06:23;12.93;;;6.45;;
79348;SDS011;68817;48.110;11.660;2023-06-22T05:08:55;12.43;;;6.53;;
79348;SDS011;68817;48.110;11.660;2023-06-22T05:11:24;13.20;;;6.47;;
79348;SDS011;68817;48.110;11.660;2023-06-22T05:13:50;13.57;;;6.30;;
79348;SDS011;68817;48.110;11.660;2023-06-22T05:16:16;12.80;;;6.32;;
79348;SDS011;68817;48.110;11.660;2023-06-22T05:18:41;10.38;;;6.03;;
79348;SDS011;68817;48.110;11.660;2023-06-22T05:21:07;9.98;;;5.55;;
79348;SDS011;68817;48.110;11.660;2023-06-22T05:23:32;11.13;;;6.07;;
79348;SDS011;68817;48.110;11.660;2023-06-22T05:25:57;14.10;;;6.75;;
79348;SDS011;68817;48.110;11.660;2023-06-22T05:28:23;10.15;;;5.68;;
79348;SDS011;68817;48.110;11.660;2023-06-22T05:30:49;12.13;;;6.30;;
79348;SDS011;68817;48.110;11.660;2023-06-22T05:33:14;11.45;;;6.63;;
79348;SDS011;68817;48.110;11.660;2023-06-22T05:35:40;9.23;;;6.00;;
79348;SDS011;68817;48.110;11.660;2023-06-22T05:38:06;9.10;;;6.38;;
79348;SDS011;68817;48.110;11.660;2023-06-22T05:40:33;10.82;;;6.03;;
79348;SDS011;68817;48.110;11.660;2023-06-22T05:42:58;10.50;;;5.10;;
79348;SDS011;68817;48.110;11.660;2023-06-22T05:45:25;10.48;;;5.95;;
79348;SDS011;68817;48.110;11.660;2023-06-22T05:47:51;13.15;;;6.53;;
79348;SDS011;68817;48.110;11.660;2023-06-22T05:50:16;14.20;;;5.75;;
79348;SDS011;68817;48.110;11.660;2023-06-22T05:52:41;11.18;;;5.95;;
79348;SDS011;68817;48.110;11.660;2023-06-22T05:55:07;9.75;;;6.28;;
79348;SDS011;68817;48.110;11.660;2023-06-22T05:57:33;11.93;;;5.72;;
79348;SDS011;68817;48.110;11.660;2023-06-22T05:59:58;12.68;;;5.35;;
79348;SDS011;68817;48.110;11.660;2023-06-22T06:02:24;12.25;;;5.85;;
79348;SDS011;68817;48.110;11.660;2023-06-22T06:04:50;9.35;;;5.43;;
79348;SDS011;68817;48.110;11.660;2023-06-22T06:07:17;14.88;;;6.13;;
79348;SDS011;68817;48.110;11.660;2023-06-22T06:09:43;11.95;;;6.25;;
79348;SDS011;68817;48.110;11.660;2023-06-22T06:12:08;9.75;;;5.85;;
79348;SDS011;68817;48.110;11.660;2023-06-22T06:14:34;14.20;;;6.55;;
79348;SDS011;68817;48.110;11.660;2023-06-22T06:16:59;10.23;;;6.07;;
79348;SDS011;68817;48.110;11.660;2023-06-22T06:19:25;9.38;;;6.10;;
79348;SDS011;68817;48.110;11.660;2023-06-22T06:21:50;13.20;;;5.72;;
79348;SDS011;68817;48.110;11.660;2023-06-22T06:24:16;9.63;;;5.63;;
79348;SDS011;68817;48.110;11.660;2023-06-22T06:26:41;12.23;;;6.40;;
79348;SDS011;68817;48.110;11.660;2023-06-22T06:29:07;9.95;;;6.55;;
79348;SDS011;68817;48.110;11.660;2023-06-22T06:31:32;12.15;;;6.05;;
79348;SDS011;68817;48.110;11.660;2023-06-22T06:33:58;13.10;;;6.40;;
79348;SDS011;68817;48.110;11.660;2023-06-22T06:36:24;16.17;;;6.70;;
79348;SDS011;68817;48.110;11.660;2023-06-22T06:38:49;13.98;;;6.25;;
79348;SDS011;68817;48.110;11.660;2023-06-22T06:41:15;10.02;;;6.57;;
79348;SDS011;68817;48.110;11.660;2023-06-22T06:43:40;13.35;;;6.30;;
79348;SDS011;68817;48.110;11.660;2023-06-22T06:46:08;8.55;;;6.35;;
79348;SDS011;68817;48.110;11.660;2023-06-22T06:48:33;14.25;;;6.57;;
79348;SDS011;68817;48.110;11.660;2023-06-22T06:50:59;12.95;;;6.72;;
79348;SDS011;68817;48.110;11.660;2023-06-22T06:53:24;14.40;;;6.75;;
79348;SDS011;68817;48.110;11.660;2023-06-22T06:55:50;13.23;;;7.00;;
79348;SDS011;68817;48.110;11.660;2023-06-22T06:58:15;22.05;;;6.57;;
79348;SDS011;68817;48.110;11.660;2023-06-22T07:00:41;12.43;;;6.00;;
79348;SDS011;68817;48.110;11.660;2023-06-22T07:03:08;11.88;;;6.60;;
79348;SDS011;68817;48.110;11.660;2023-06-22T07:05:34;10.50;;;6.50;;
79348;SDS011;68817;48.110;11.660;2023-06-22T07:08:00;12.70;;;6.35;;
79348;SDS011;68817;48.110;11.660;2023-06-22T07:10:26;12.30;;;6.30;;
79348;SDS011;68817;48.110;11.660;2023-06-22T07:12:51;10.18;;;6.53;;
79348;SDS011;68817;48.110;11.660;2023-06-22T07:15:17;11.85;;;6.38;;
79348;SDS011;68817;48.110;11.660;2023-06-22T07:17:42;11.75;;;6.70;;
79348;SDS011;68817;48.110;11.660;2023-06-22T07:20:08;11.40;;;5.72;;
79348;SDS011;68817;48.110;11.660;2023-06-22T07:22:35;10.45;;;6.15;;
79348;SDS011;68817;48.110;11.660;2023-06-22T07:25:01;14.38;;;6.70;;
79348;SDS011;68817;48.110;11.660;2023-06-22T07:27:30;12.80;;;5.88;;
79348;SDS011;68817;48.110;11.660;2023-06-22T07:30:01;11.23;;;6.25;;
79348;SDS011;68817;48.110;11.660;2023-06-22T07:32:26;11.68;;;6.30;;
79348;SDS011;68817;48.110;11.660;2023-06-22T07:34:53;9.20;;;6.15;;
79348;SDS011;68817;48.110;11.660;2023-06-22T07:37:18;9.32;;;6.25;;
79348;SDS011;68817;48.110;11.660;2023-06-22T07:39:44;9.20;;;5.95;;
79348;SDS011;68817;48.110;11.660;2023-06-22T07:42:09;12.82;;;6.18;;
79348;SDS011;68817;48.110;11.660;2023-06-22T07:44:35;10.55;;;6.00;;
79348;SDS011;68817;48.110;11.660;2023-06-22T07:47:00;11.50;;;6.28;;
79348;SDS011;68817;48.110;11.660;2023-06-22T07:49:27;12.88;;;6.55;;
79348;SDS011;68817;48.110;11.660;2023-06-22T07:51:53;13.45;;;6.65;;
79348;SDS011;68817;48.110;11.660;2023-06-22T07:54:18;11.02;;;6.30;;
79348;SDS011;68817;48.110;11.660;2023-06-22T07:56:44;13.88;;;6.47;;
79348;SDS011;68817;48.110;11.660;2023-06-22T07:59:09;12.68;;;6.10;;
79348;SDS011;68817;48.110;11.660;2023-06-22T08:01:34;15.25;;;6.93;;
79348;SDS011;68817;48.110;11.660;2023-06-22T08:04:00;10.98;;;6.03;;
79348;SDS011;68817;48.110;11.660;2023-06-22T08:06:25;11.07;;;6.38;;
79348;SDS011;68817;48.110;11.660;2023-06-22T08:08:51;15.57;;;6.20;;
79348;SDS011;68817;48.110;11.660;2023-06-22T08:11:17;13.15;;;6.20;;
79348;SDS011;68817;48.110;11.660;2023-06-22T08:13:43;12.80;;;6.80;;
79348;SDS011;68817;48.110;11.660;2023-06-22T08:16:08;14.77;;;5.93;;
79348;SDS011;68817;48.110;11.660;2023-06-22T08:18:34;12.27;;;6.47;;
79348;SDS011;68817;48.110;11.660;2023-06-22T08:20:59;12.05;;;6.53;;
79348;SDS011;68817;48.110;11.660;2023-06-22T08:23:24;14.18;;;6.60;;
79348;SDS011;68817;48.110;11.660;2023-06-22T08:25:50;12.02;;;5.40;;
79348;SDS011;68817;48.110;11.660;2023-06-22T08:28:16;13.18;;;5.80;;
79348;SDS011;68817;48.110;11.660;2023-06-22T08:30:41;11.13;;;5.97;;
79348;SDS011;68817;48.110;11.660;2023-06-22T08:33:06;12.23;;;5.95;;
79348;SDS011;68817;48.110;11.660;2023-06-22T08:35:32;14.13;;;6.53;;
79348;SDS011;68817;48.110;11.660;2023-06-22T08:37:57;12.57;;;6.53;;
79348;SDS011;68817;48.110;11.660;2023-06-22T08:40:24;11.82;;;5.97;;
79348;SDS011;68817;48.110;11.660;2023-06-22T08:42:49;13.77;;;6.35;;
79348;SDS011;68817;48.110;11.660;2023-06-22T08:45:15;12.38;;;5.80;;
79348;SDS011;68817;48.110;11.660;2023-06-22T08:47:41;11.82;;;5.82;;
79348;SDS011;68817;48.110;11.660;2023-06-22T08:50:07;13.90;;;5.95;;
79348;SDS011;68817;48.110;11.660;2023-06-22T08:52:34;12.85;;;5.70;;
79348;SDS011;68817;48.110;11.660;2023-06-22T08:54:59;12.15;;;6.03;;
79348;SDS011;68817;48.110;11.660;2023-06-22T08:57:25;12.75;;;6.38;;
79348;SDS011;68817;48.110;11.660;2023-06-22T08:59:51;10.07;;;6.28;;
79348;SDS011;68817;48.110;11.660;2023-06-22T09:02:23;14.05;;;6.07;;
79348;SDS011;68817;48.110;11.660;2023-06-22T09:04:48;10.85;;;5.78;;
79348;SDS011;68817;48.110;11.660;2023-06-22T09:07:20;14.88;;;6.53;;
79348;SDS011;68817;48.110;11.660;2023-06-22T09:09:48;12.85;;;5.97;;
79348;SDS011;68817;48.110;11.660;2023-06-22T09:12:14;13.73;;;5.63;;
79348;SDS011;68817;48.110;11.660;2023-06-22T09:14:39;16.98;;;5.97;;
79348;SDS011;68817;48.110;11.660;2023-06-22T09:17:05;13.45;;;6.03;;
79348;SDS011;68817;48.110;11.660;2023-06-22T09:19:30;13.00;;;6.35;;
79348;SDS011;68817;48.110;11.660;2023-06-22T09:21:55;13.60;;;5.90;;
79348;SDS011;68817;48.110;11.660;2023-06-22T09:24:21;13.52;;;5.82;;
79348;SDS011;68817;48.110;11.660;2023-06-22T09:26:46;13.18;;;6.00;;
79348;SDS011;68817;48.110;11.660;2023-06-22T09:29:12;13.32;;;5.40;;
79348;SDS011;68817;48.110;11.660;2023-06-22T09:31:37;13.45;;;6.53;;
79348;SDS011;68817;48.110;11.660;2023-06-22T09:34:03;11.73;;;5.57;;
79348;SDS011;68817;48.110;11.660;2023-06-22T09:36:28;13.38;;;5.97;;
79348;SDS011;68817;48.110;11.660;2023-06-22T09:38:53;12.43;;;5.65;;
79348;SDS011;68817;48.110;11.660;2023-06-22T09:41:23;13.23;;;5.88;;
79348;SDS011;68817;48.110;11.660;2023-06-22T09:43:49;13.00;;;5.50;;
79348;SDS011;68817;48.110;11.660;2023-06-22T09:46:15;9.70;;;5.90;;
79348;SDS011;68817;48.110;11.660;2023-06-22T09:48:41;12.05;;;6.28;;
79348;SDS011;68817;48.110;11.660;2023-06-22T09:51:06;14.10;;;6.55;;
79348;SDS011;68817;48.110;11.660;2023-06-22T09:53:32;13.13;;;5.78;;
79348;SDS011;68817;48.110;11.660;2023-06-22T09:55:57;12.23;;;6.32;;
79348;SDS011;68817;48.110;11.660;2023-06-22T09:58:22;12.93;;;6.22;;
79348;SDS011;68817;48.110;11.660;2023-06-22T10:00:48;13.18;;;5.97;;
79348;SDS011;68817;48.110;11.660;2023-06-22T10:03:13;11.90;;;5.95;;
79348;SDS011;68817;48.110;11.660;2023-06-22T10:05:39;14.52;;;6.50;;
79348;SDS011;68817;48.110;11.660;2023-06-22T10:08:04;11.85;;;5.93;;
79348;SDS011;68817;48.110;11.660;2023-06-22T10:10:29;12.85;;;5.82;;
79348;SDS011;68817;48.110;11.660;2023-06-22T10:12:56;11.45;;;6.20;;
79348;SDS011;68817;48.110;11.660;2023-06-22T10:15:22;10.90;;;5.53;;
79348;SDS011;68817;48.110;11.660;2023-06-22T10:17:48;13.57;;;5.95;;
79348;SDS011;68817;48.110;11.660;2023-06-22T10:20:13;14.15;;;6.60;;
79348;SDS011;68817;48.110;11.660;2023-06-22T10:22:40;12.23;;;5.95;;
79348;SDS011;68817;48.110;11.660;2023-06-22T10:25:06;14.27;;;6.15;;
79348;SDS011;68817;48.110;11.660;2023-06-22T10:27:32;11.38;;;5.97;;
79348;SDS011;68817;48.110;11.660;2023-06-22T10:29:57;11.75;;;5.30;;
79348;SDS011;68817;48.110;11.660;2023-06-22T10:32:23;12.02;;;5.50;;
79348;SDS011;68817;48.110;11.660;2023-06-22T10:34:48;14.35;;;5.53;;
79348;SDS011;68817;48.110;11.660;2023-06-22T10:37:14;12.95;;;6.30;;
79348;SDS011;68817;48.110;11.660;2023-06-22T10:39:39;12.00;;;5.80;;
79348;SDS011;68817;48.110;11.660;2023-06-22T10:42:05;15.18;;;5.80;;
79348;SDS011;68817;48.110;11.660;2023-06-22T10:44:30;14.80;;;5.72;;
79348;SDS011;68817;48.110;11.660;2023-06-22T10:46:56;14.90;;;5.85;;
79348;SDS011;68817;48.110;11.660;2023-06-22T10:49:21;14.20;;;6.25;;
79348;SDS011;68817;48.110;11.660;2023-06-22T10:51:46;13.95;;;6.07;;
79348;SDS011;68817;48.110;11.660;2023-06-22T10:54:12;13.57;;;5.68;;
79348;SDS011;68817;48.110;11.660;2023-06-22T10:56:39;15.63;;;5.80;;
79348;SDS011;68817;48.110;11.660;2023-06-22T10:59:05;9.70;;;4.65;;
79348;SDS011;68817;48.110;11.660;2023-06-22T11:01:30;11.65;;;5.95;;
79348;SDS011;68817;48.110;11.660;2023-06-22T11:03:56;11.95;;;5.47;;
79348;SDS011;68817;48.110;11.660;2023-06-22T11:06:22;14.13;;;6.03;;
79348;SDS011;68817;48.110;11.660;2023-06-22T11:08:47;14.05;;;6.03;;
79348;SDS011;68817;48.110;11.660;2023-06-22T11:11:13;16.35;;;6.13;;
79348;SDS011;68817;48.110;11.660;2023-06-22T11:13:38;12.35;;;6.03;;
79348;SDS011;68817;48.110;11.660;2023-06-22T11:16:03;11.85;;;6.20;;
79348;SDS011;68817;48.110;11.660;2023-06-22T11:18:30;15.90;;;6.55;;
79348;SDS011;68817;48.110;11.660;2023-06-22T11:20:58;14.13;;;5.78;;
79348;SDS011;68817;48.110;11.660;2023-06-22T11:23:23;13.50;;;5.72;;
79348;SDS011;68817;48.110;11.660;2023-06-22T11:25:51;16.05;;;6.25;;
79348;SDS011;68817;48.110;11.660;2023-06-22T11:28:16;13.90;;;5.85;;
79348;SDS011;68817;48.110;11.660;2023-06-22T11:30:42;13.05;;;5.80;;
79348;SDS011;68817;48.110;11.660;2023-06-22T11:33:07;16.27;;;6.70;;
79348;SDS011;68817;48.110;11.660;2023-06-22T11:35:33;17.38;;;5.80;;
79348;SDS011;68817;48.110;11.660;2023-06-22T11:37:58;12.18;;;6.32;;
79348;SDS011;68817;48.110;11.660;2023-06-22T11:40:24;12.07;;;6.38;;
79348;SDS011;68817;48.110;11.660;2023-06-22T11:42:49;13.68;;;6.15;;
79348;SDS011;68817;48.110;11.660;2023-06-22T11:45:14;17.10;;;6.72;;
79348;SDS011;68817;48.110;11.660;2023-06-22T11:47:40;14.98;;;6.40;;
79348;SDS011;68817;48.110;11.660;2023-06-22T11:50:05;10.43;;;6.13;;
79348;SDS011;68817;48.110;11.660;2023-06-22T11:52:32;14.82;;;7.13;;
79348;SDS011;68817;48.110;11.660;2023-06-22T11:54:58;16.02;;;6.75;;
79348;SDS011;68817;48.110;11.660;2023-06-22T11:57:24;10.38;;;6.43;;
79348;SDS011;68817;48.110;11.660;2023-06-22T11:59:49;12.85;;;6.45;;
79348;SDS011;68817;48.110;11.660;2023-06-22T12:02:15;17.83;;;6.60;;
79348;SDS011;68817;48.110;11.660;2023-06-22T12:04:40;13.10;;;6.57;;
79348;SDS011;68817;48.110;11.660;2023-06-22T12:07:06;12.45;;;5.95;;
79348;SDS011;68817;48.110;11.660;2023-06-22T12:09:31;11.18;;;6.50;;
79348;SDS011;68817;48.110;11.660;2023-06-22T12:11:58;15.15;;;6.22;;
79348;SDS011;68817;48.110;11.660;2023-06-22T12:14:23;15.55;;;6.38;;
79348;SDS011;68817;48.110;11.660;2023-06-22T12:16:48;13.60;;;6.25;;
79348;SDS011;68817;48.110;11.660;2023-06-22T12:19:14;12.60;;;6.30;;
79348;SDS011;68817;48.110;11.660;2023-06-22T12:21:39;16.35;;;6.55;;
79348;SDS011;68817;48.110;11.660;2023-06-22T12:24:06;14.38;;;6.60;;
79348;SDS011;68817;48.110;11.660;2023-06-22T12:26:31;14.65;;;6.25;;
79348;SDS011;68817;48.110;11.660;2023-06-22T12:28:57;16.02;;;6.55;;
79348;SDS011;68817;48.110;11.660;2023-06-22T12:31:22;11.55;;;6.38;;
79348;SDS011;68817;48.110;11.660;2023-06-22T12:33:47;12.73;;;6.15;;
79348;SDS011;68817;48.110;11.660;2023-06-22T12:36:13;12.45;;;6.53;;
79348;SDS011;68817;48.110;11.660;2023-06-22T12:38:38;14.25;;;6.05;;
79348;SDS011;68817;48.110;11.660;2023-06-22T12:41:04;12.75;;;6.20;;
79348;SDS011;68817;48.110;11.660;2023-06-22T12:43:29;11.90;;;6.18;;
79348;SDS011;68817;48.110;11.660;2023-06-22T12:45:54;14.13;;;6.53;;
79348;SDS011;68817;48.110;11.660;2023-06-22T12:48:21;11.13;;;6.05;;
79348;SDS011;68817;48.110;11.660;2023-06-22T12:50:47;14.63;;;6.57;;
79348;SDS011;68817;48.110;11.660;2023-06-22T12:53:13;12.55;;;6.00;;
79348;SDS011;68817;48.110;11.660;2023-06-22T12:55:38;11.57;;;6.00;;
79348;SDS011;68817;48.110;11.660;2023-06-22T12:58:03;13.13;;;6.30;;
79348;SDS011;68817;48.110;11.660;2023-06-22T13:00:29;11.45;;;5.78;;
79348;SDS011;68817;48.110;11.660;2023-06-22T13:02:54;13.50;;;6.28;;
79348;SDS011;68817;48.110;11.660;2023-06-22T13:05:20;13.90;;;6.00;;
79348;SDS011;68817;48.110;11.660;2023-06-22T13:07:45;11.13;;;5.82;;
79348;SDS011;68817;48.110;11.660;2023-06-22T13:10:11;15.57;;;6.13;;
79348;SDS011;68817;48.110;11.660;2023-06-22T13:12:36;11.88;;;5.80;;
79348;SDS011;68817;48.110;11.660;2023-06-22T13:15:01;14.90;;;5.80;;
79348;SDS011;68817;48.110;11.660;2023-06-22T13:17:28;13.63;;;6.07;;
79348;SDS011;68817;48.110;11.660;2023-06-22T13:19:53;11.10;;;6.18;;
79348;SDS011;68817;48.110;11.660;2023-06-22T13:22:29;12.32;;;5.53;;
79348;SDS011;68817;48.110;11.660;2023-06-22T13:24:55;10.55;;;5.68;;
79348;SDS011;68817;48.110;11.660;2023-06-22T13:27:21;13.30;;;6.20;;
79348;SDS011;68817;48.110;11.660;2023-06-22T13:29:46;16.63;;;6.35;;
79348;SDS011;68817;48.110;11.660;2023-06-22T13:32:12;14.15;;;5.97;;
79348;SDS011;68817;48.110;11.660;2023-06-22T13:34:37;11.80;;;5.45;;
79348;SDS011;68817;48.110;11.660;2023-06-22T13:37:03;14.35;;;6.10;;
79348;SDS011;68817;48.110;11.660;2023-06-22T13:39:28;12.43;;;5.65;;
79348;SDS011;68817;48.110;11.660;2023-06-22T13:41:55;14.10;;;6.15;;
79348;SDS011;68817;48.110;11.660;2023-06-22T13:44:20;13.10;;;5.22;;
79348;SDS011;68817;48.110;11.660;2023-06-22T13:46:47;12.90;;;5.72;;
79348;SDS011;68817;48.110;11.660;2023-06-22T13:49:12;13.63;;;5.95;;
79348;SDS011;68817;48.110;11.660;2023-06-22T13:51:38;12.88;;;6.20;;
79348;SDS011;68817;48.110;11.660;2023-06-22T13:54:03;9.52;;;5.97;;
79348;SDS011;68817;48.110;11.660;2023-06-22T13:56:29;10.27;;;4.80;;
79348;SDS011;68817;48.110;11.660;2023-06-22T13:58:54;11.45;;;5.97;;
79348;SDS011;68817;48.110;11.660;2023-06-22T14:01:19;15.40;;;6.53;;
79348;SDS011;68817;48.110;11.660;2023-06-22T14:03:45;15.98;;;6.07;;
79348;SDS011;68817;48.110;11.660;2023-06-22T14:06:12;12.75;;;5.97;;
79348;SDS011;68817;48.110;11.660;2023-06-22T14:08:38;12.55;;;6.25;;
79348;SDS011;68817;48.110;11.660;2023-06-22T14:11:03;13.73;;;5.57;;
79348;SDS011;68817;48.110;11.660;2023-06-22T14:13:29;15.68;;;5.47;;
79348;SDS011;68817;48.110;11.660;2023-06-22T14:15:54;11.85;;;5.88;;
79348;SDS011;68817;48.110;11.660;2023-06-22T14:18:19;14.15;;;5.53;;
79348;SDS011;68817;48.110;11.660;2023-06-22T14:20:47;12.13;;;5.65;;
79348;SDS011;68817;48.110;11.660;2023-06-22T14:23:13;11.80;;;5.60;;
79348;SDS011;68817;48.110;11.660;2023-06-22T14:25:39;16.42;;;6.07;;